首页
METAR-TAF:

METAR-TAF

机场 :

坦帕, 佛罗里达州, 美国

纬度: 27-51N, 经度: 082-30W, 海拔: 4米

当前天气观测

该预报发布于29分钟前的12:01 UTC
风速7节,风向西
温度 29°C
湿度 79%
气压 1014 hPa
能見度: 16.1公里
散云层高于2100英尺
散云层高于19000英尺

METAR: KMCF 111201Z AUTO 27007KT 10SM SCT021 SCT190 29/25 A2993 RMK AO2 LTG DSNT NW SLP138 FZRANO $

时间: 08:30 (12:30 UTC)

预报

该预报发布于1小时和30分钟前的11:00 UTC
预报有效从11日的 11点(UTC)到 12日的 17点(UTC)
风速9节,风向西转西北
能见度10公里或以上
散云层高于2000英尺
成为
从 11日的 12点(UTC)到 11日的 13点(UTC)
风速9节,风向西转西北
能見度: 9000
散云层高于1800英尺, 积雨云.
阴天层高于3000英尺
小阵雨, 附近有雷暴
短暂存在
从 11日的 16点(UTC)到 11日的 19点(UTC)
风速15节,风向多变,有时为25节阵风
能見度: 8000
散云层高于1800英尺, 积雨云.
阴天层高于3000英尺
雷暴, 小雨, 轻雾
成为
从 12日的 06点(UTC)到 12日的 07点(UTC)
风速6节,风向多变
能见度10公里或以上
少量云层高于2000英尺, 积雨云.
附近有雷暴
成为
从 12日的 09点(UTC)到 12日的 10点(UTC)
风速6节,风向多变
能见度10公里或以上
散云层高于18000英尺

TAF: KMCF 111100Z 1111/1217 29009KT 9999 SCT020 QNH2990INS BECMG 1112/1113 29009KT 9000 -SHRA VCTS SCT018CB OVC030 QNH2988INS TEMPO 1116/1119 VRB15G25KT 8000 -TSRA BR SCT018CB OVC030 BECMG 1206/1207 VRB06KT 9999 VCTS FEW020CB QNH2989INS BECMG 1209/1210 VRB06KT 9999 NSW SCT180 QNH2992INS TX32/1119Z TN26/1209Z

超过4000个机场的气象观测和天气预报(METAR&TAF报告)。

可查询的气象台以黄色和红色小点在地图上表示。

将鼠标移到小点上方,可查看气象台名称。

然后点击查看天气观测和预报。

如需切换地图:点击带黑十字的绿色按钮放大地图;点击带横线的绿色按钮缩小地图;或者点击绿色箭头查看邻近地区的地图。


METAR-TAF: